TimeEST,TemperatureF,Dew PointF,Humidity,Sea Level PressureIn,VisibilityMPH,Wind Direction,Wind SpeedMPH,Gust SpeedMPH,PrecipitationIn,Events,Conditions,WindDirDegrees,DateUTC
12:54 AM,37.0,35.1,93,29.96,-9999.0,North,-9999.0,-,N/A,,Unknown,0,2012-12-09 05:54:00
1:54 AM,37.0,35.1,93,30.01,-9999.0,North,-9999.0,-,N/A,,Unknown,0,2012-12-09 06:54:00
2:54 AM,39.9,33.1,77,30.04,-9999.0,North,-9999.0,-,N/A,,Unknown,0,2012-12-09 07:54:00
3:54 AM,39.0,30.9,73,30.07,-9999.0,North,-9999.0,-,N/A,,Unknown,0,2012-12-09 08:54:00
4:54 AM,37.9,28.9,70,30.11,-9999.0,North,-9999.0,-,N/A,,Unknown,0,2012-12-09 09:54:00
5:54 AM,37.0,28.9,73,30.15,-9999.0,North,-9999.0,-,N/A,,Unknown,0,2012-12-09 10:54:00
6:54 AM,36.0,27.0,70,30.19,-9999.0,North,-9999.0,-,N/A,,Unknown,0,2012-12-09 11:54:00
7:54 AM,36.0,26.1,67,30.23,-9999.0,North,-9999.0,-,N/A,,Unknown,0,2012-12-09 12:54:00
8:54 AM,36.0,25.0,64,30.26,-9999.0,North,-9999.0,-,N/A,,Unknown,0,2012-12-09 13:54:00
9:54 AM,37.0,24.1,59,30.28,-9999.0,North,-9999.0,-,N/A,,Unknown,0,2012-12-09 14:54:00
10:54 AM,37.9,24.1,57,30.27,-9999.0,North,-9999.0,-,N/A,,Unknown,0,2012-12-09 15:54:00
11:54 AM,37.9,25.0,60,30.26,-9999.0,North,-9999.0,-,N/A,,Unknown,0,2012-12-09 16:54:00
12:54 PM,37.0,24.1,59,30.27,-9999.0,North,-9999.0,-,N/A,,Unknown,0,2012-12-09 17:54:00
1:54 PM,37.0,23.0,57,30.26,-9999.0,North,-9999.0,-,N/A,,Unknown,0,2012-12-09 18:54:00
2:54 PM,35.1,24.1,64,30.27,-9999.0,North,-9999.0,-,N/A,,Unknown,0,2012-12-09 19:54:00
3:54 PM,33.1,23.0,66,30.31,-9999.0,North,-9999.0,-,N/A,,Unknown,0,2012-12-09 20:54:00
4:54 PM,30.9,23.0,72,30.32,-9999.0,North,-9999.0,-,N/A,,Unknown,0,2012-12-09 21:54:00
5:54 PM,30.0,23.0,75,30.31,-9999.0,North,-9999.0,-,N/A,,Unknown,0,2012-12-09 22:54:00
6:54 PM,30.0,23.0,75,30.29,-9999.0,North,-9999.0,-,N/A,,Unknown,0,2012-12-09 23:54:00
7:54 PM,30.0,23.0,75,30.29,-9999.0,North,-9999.0,-,N/A,,Unknown,0,2012-12-10 00:54:00
8:54 PM,30.0,23.0,75,30.24,-9999.0,North,-9999.0,-,N/A,,Unknown,0,2012-12-10 01:54:00
9:54 PM,30.0,24.1,79,30.19,-9999.0,North,-9999.0,-,N/A,,Unknown,0,2012-12-10 02:54:00
10:54 PM,30.0,24.1,79,30.17,-9999.0,North,-9999.0,-,N/A,,Unknown,0,2012-12-10 03:54:00
11:54 PM,30.9,24.1,76,30.14,-9999.0,North,-9999.0,-,N/A,,Unknown,0,2012-12-10 04:54:00